aviador You're here:

PAVA Decoded Metar

Chevak in AK, USA
Report Time2018-01-17 18:05:00
UTC Time2018-01-17 18:15:53
Flight Rules mvfr MVFR
Wind330° at 18 kt
W.Decomp.*RWY 02: 8.2 kt HW 16 kt LCW
W.Rank330° ranks 23
Current wind is above 330° avg. (9.7)
Visibility9999 m
Phenomena:Light Snow
Clouds:Broken 016 Hf
Overcast 021 Hf
Expected CloudBase > 800 ft AGL from Temp-Dew spread
Ceiling1,600 ft
Temp-7°C (ISA -22)
Dew Point-9°C (86% RH)
AAT-16.5°C
QNH1003 hPa
Density Alt-2,251 ft
Elevation75 ft
Report Wrong Elevation
Raw Report
PAVA 171805Z AUTO 33018KT 8SM -SN BKN016 OVC021 M07/M09 A2961 RMK
AO2 SNB1758 P0000 FZRANO=

Extra information for PAVA:More info

Airport Information Weather charts Add Link Nearby Venues Social comments

AIRNAV info for PAVA